sensor_id;sensor_type;location;lat;lon;timestamp;P1;durP1;ratioP1;P2;durP2;ratioP2
7051;SDS011;3567;52.444;13.556;2023-12-20T00:00:25;32.88;;;15.02;;
7051;SDS011;3567;52.444;13.556;2023-12-20T00:02:50;29.17;;;13.90;;
7051;SDS011;3567;52.444;13.556;2023-12-20T00:05:16;27.83;;;13.80;;
7051;SDS011;3567;52.444;13.556;2023-12-20T00:07:41;30.20;;;13.70;;
7051;SDS011;3567;52.444;13.556;2023-12-20T00:10:07;31.65;;;14.70;;
7051;SDS011;3567;52.444;13.556;2023-12-20T00:12:32;32.38;;;13.50;;
7051;SDS011;3567;52.444;13.556;2023-12-20T00:14:58;29.08;;;13.95;;
7051;SDS011;3567;52.444;13.556;2023-12-20T00:17:23;29.48;;;14.00;;
7051;SDS011;3567;52.444;13.556;2023-12-20T00:19:51;27.55;;;14.30;;
7051;SDS011;3567;52.444;13.556;2023-12-20T00:22:17;31.33;;;14.55;;
7051;SDS011;3567;52.444;13.556;2023-12-20T00:24:42;30.35;;;14.38;;
7051;SDS011;3567;52.444;13.556;2023-12-20T00:27:07;28.17;;;13.90;;
7051;SDS011;3567;52.444;13.556;2023-12-20T00:29:33;31.27;;;14.20;;
7051;SDS011;3567;52.444;13.556;2023-12-20T00:31:58;28.38;;;13.75;;
7051;SDS011;3567;52.444;13.556;2023-12-20T00:34:24;28.95;;;13.60;;
7051;SDS011;3567;52.444;13.556;2023-12-20T00:36:49;24.77;;;11.60;;
7051;SDS011;3567;52.444;13.556;2023-12-20T00:39:14;26.42;;;13.43;;
7051;SDS011;3567;52.444;13.556;2023-12-20T00:41:40;27.02;;;14.20;;
7051;SDS011;3567;52.444;13.556;2023-12-20T00:44:05;30.90;;;13.13;;
7051;SDS011;3567;52.444;13.556;2023-12-20T00:46:30;26.38;;;12.98;;
7051;SDS011;3567;52.444;13.556;2023-12-20T00:48:58;28.30;;;12.90;;
7051;SDS011;3567;52.444;13.556;2023-12-20T00:51:24;26.65;;;14.05;;
7051;SDS011;3567;52.444;13.556;2023-12-20T00:53:50;23.55;;;12.88;;
7051;SDS011;3567;52.444;13.556;2023-12-20T00:56:19;25.67;;;12.23;;
7051;SDS011;3567;52.444;13.556;2023-12-20T00:58:45;26.27;;;13.30;;
7051;SDS011;3567;52.444;13.556;2023-12-20T01:01:10;27.58;;;13.27;;
7051;SDS011;3567;52.444;13.556;2023-12-20T01:03:35;34.88;;;12.75;;
7051;SDS011;3567;52.444;13.556;2023-12-20T01:06:01;30.67;;;13.40;;
7051;SDS011;3567;52.444;13.556;2023-12-20T01:08:26;21.33;;;11.45;;
7051;SDS011;3567;52.444;13.556;2023-12-20T01:10:52;26.33;;;12.82;;
7051;SDS011;3567;52.444;13.556;2023-12-20T01:13:18;22.25;;;11.82;;
7051;SDS011;3567;52.444;13.556;2023-12-20T01:15:44;21.95;;;11.65;;
7051;SDS011;3567;52.444;13.556;2023-12-20T01:18:09;22.25;;;11.90;;
7051;SDS011;3567;52.444;13.556;2023-12-20T01:20:35;24.15;;;12.32;;
7051;SDS011;3567;52.444;13.556;2023-12-20T01:23:01;24.15;;;12.38;;
7051;SDS011;3567;52.444;13.556;2023-12-20T01:25:26;25.33;;;12.45;;
7051;SDS011;3567;52.444;13.556;2023-12-20T01:27:52;23.13;;;12.18;;
7051;SDS011;3567;52.444;13.556;2023-12-20T01:30:17;23.50;;;11.80;;
7051;SDS011;3567;52.444;13.556;2023-12-20T01:32:43;27.45;;;13.00;;
7051;SDS011;3567;52.444;13.556;2023-12-20T01:35:08;27.45;;;13.25;;
7051;SDS011;3567;52.444;13.556;2023-12-20T01:37:37;23.27;;;11.45;;
7051;SDS011;3567;52.444;13.556;2023-12-20T01:40:08;25.08;;;11.45;;
7051;SDS011;3567;52.444;13.556;2023-12-20T01:42:34;27.08;;;11.30;;
7051;SDS011;3567;52.444;13.556;2023-12-20T01:44:59;25.33;;;11.23;;
7051;SDS011;3567;52.444;13.556;2023-12-20T01:47:25;25.17;;;11.40;;
7051;SDS011;3567;52.444;13.556;2023-12-20T01:49:52;25.05;;;12.13;;
7051;SDS011;3567;52.444;13.556;2023-12-20T01:52:18;30.48;;;13.23;;
7051;SDS011;3567;52.444;13.556;2023-12-20T01:54:45;25.95;;;11.68;;
7051;SDS011;3567;52.444;13.556;2023-12-20T01:57:11;26.00;;;11.20;;
7051;SDS011;3567;52.444;13.556;2023-12-20T01:59:38;27.17;;;12.50;;
7051;SDS011;3567;52.444;13.556;2023-12-20T02:02:04;31.15;;;12.02;;
7051;SDS011;3567;52.444;13.556;2023-12-20T02:04:30;29.85;;;12.02;;
7051;SDS011;3567;52.444;13.556;2023-12-20T02:06:56;28.05;;;12.02;;
7051;SDS011;3567;52.444;13.556;2023-12-20T02:09:23;35.72;;;12.75;;
7051;SDS011;3567;52.444;13.556;2023-12-20T02:11:49;30.90;;;12.23;;
7051;SDS011;3567;52.444;13.556;2023-12-20T02:14:14;24.05;;;11.25;;
7051;SDS011;3567;52.444;13.556;2023-12-20T02:16:40;27.45;;;13.02;;
7051;SDS011;3567;52.444;13.556;2023-12-20T02:19:07;20.33;;;10.40;;
7051;SDS011;3567;52.444;13.556;2023-12-20T02:21:39;24.20;;;10.77;;
7051;SDS011;3567;52.444;13.556;2023-12-20T02:24:05;21.50;;;11.80;;
7051;SDS011;3567;52.444;13.556;2023-12-20T02:26:31;18.13;;;9.45;;
7051;SDS011;3567;52.444;13.556;2023-12-20T02:28:58;19.50;;;10.07;;
7051;SDS011;3567;52.444;13.556;2023-12-20T02:31:27;20.13;;;10.02;;
7051;SDS011;3567;52.444;13.556;2023-12-20T02:33:55;24.48;;;11.27;;
7051;SDS011;3567;52.444;13.556;2023-12-20T02:36:20;22.13;;;10.18;;
7051;SDS011;3567;52.444;13.556;2023-12-20T02:38:49;19.75;;;10.43;;
7051;SDS011;3567;52.444;13.556;2023-12-20T02:41:15;27.17;;;10.45;;
7051;SDS011;3567;52.444;13.556;2023-12-20T02:43:42;34.35;;;11.40;;
7051;SDS011;3567;52.444;13.556;2023-12-20T02:46:09;18.73;;;10.27;;
7051;SDS011;3567;52.444;13.556;2023-12-20T02:48:34;24.30;;;11.40;;
7051;SDS011;3567;52.444;13.556;2023-12-20T02:50:59;23.70;;;10.85;;
7051;SDS011;3567;52.444;13.556;2023-12-20T02:53:27;29.77;;;13.35;;
7051;SDS011;3567;52.444;13.556;2023-12-20T02:55:53;21.50;;;10.95;;
7051;SDS011;3567;52.444;13.556;2023-12-20T02:58:18;33.72;;;12.90;;
7051;SDS011;3567;52.444;13.556;2023-12-20T03:00:43;25.05;;;13.10;;
7051;SDS011;3567;52.444;13.556;2023-12-20T03:03:09;22.67;;;12.45;;
7051;SDS011;3567;52.444;13.556;2023-12-20T03:05:34;19.13;;;12.00;;
7051;SDS011;3567;52.444;13.556;2023-12-20T03:08:00;26.77;;;13.18;;
7051;SDS011;3567;52.444;13.556;2023-12-20T03:10:27;26.90;;;13.52;;
7051;SDS011;3567;52.444;13.556;2023-12-20T03:12:53;26.15;;;11.60;;
7051;SDS011;3567;52.444;13.556;2023-12-20T03:15:18;20.77;;;12.30;;
7051;SDS011;3567;52.444;13.556;2023-12-20T03:17:44;28.35;;;13.23;;
7051;SDS011;3567;52.444;13.556;2023-12-20T03:20:15;23.50;;;12.05;;
7051;SDS011;3567;52.444;13.556;2023-12-20T03:22:41;26.42;;;12.65;;
7051;SDS011;3567;52.444;13.556;2023-12-20T03:25:06;23.17;;;11.55;;
7051;SDS011;3567;52.444;13.556;2023-12-20T03:27:32;21.55;;;10.82;;
7051;SDS011;3567;52.444;13.556;2023-12-20T03:30:00;23.50;;;10.93;;
7051;SDS011;3567;52.444;13.556;2023-12-20T03:32:25;16.88;;;8.07;;
7051;SDS011;3567;52.444;13.556;2023-12-20T03:34:54;20.63;;;8.93;;
7051;SDS011;3567;52.444;13.556;2023-12-20T03:37:19;20.42;;;8.02;;
7051;SDS011;3567;52.444;13.556;2023-12-20T03:39:45;21.95;;;7.30;;
7051;SDS011;3567;52.444;13.556;2023-12-20T03:42:10;23.38;;;7.93;;
7051;SDS011;3567;52.444;13.556;2023-12-20T03:44:38;16.80;;;6.82;;
7051;SDS011;3567;52.444;13.556;2023-12-20T03:47:06;24.40;;;7.70;;
7051;SDS011;3567;52.444;13.556;2023-12-20T03:49:34;17.25;;;6.80;;
7051;SDS011;3567;52.444;13.556;2023-12-20T03:52:02;19.15;;;7.18;;
7051;SDS011;3567;52.444;13.556;2023-12-20T03:54:28;22.42;;;7.10;;
7051;SDS011;3567;52.444;13.556;2023-12-20T03:56:53;16.25;;;5.68;;
7051;SDS011;3567;52.444;13.556;2023-12-20T03:59:19;19.67;;;5.93;;
7051;SDS011;3567;52.444;13.556;2023-12-20T04:01:45;14.73;;;5.43;;
7051;SDS011;3567;52.444;13.556;2023-12-20T04:04:10;25.77;;;7.13;;
7051;SDS011;3567;52.444;13.556;2023-12-20T04:06:36;18.23;;;6.35;;
7051;SDS011;3567;52.444;13.556;2023-12-20T04:09:02;20.63;;;5.57;;
7051;SDS011;3567;52.444;13.556;2023-12-20T04:11:28;22.10;;;6.35;;
7051;SDS011;3567;52.444;13.556;2023-12-20T04:13:55;18.05;;;5.70;;
7051;SDS011;3567;52.444;13.556;2023-12-20T04:16:21;16.98;;;5.45;;
7051;SDS011;3567;52.444;13.556;2023-12-20T04:18:46;12.40;;;5.03;;
7051;SDS011;3567;52.444;13.556;2023-12-20T04:21:11;13.77;;;5.15;;
7051;SDS011;3567;52.444;13.556;2023-12-20T04:23:37;11.65;;;4.95;;
7051;SDS011;3567;52.444;13.556;2023-12-20T04:26:05;16.95;;;4.22;;
7051;SDS011;3567;52.444;13.556;2023-12-20T04:28:30;10.27;;;4.63;;
7051;SDS011;3567;52.444;13.556;2023-12-20T04:30:56;21.92;;;4.47;;
7051;SDS011;3567;52.444;13.556;2023-12-20T04:33:21;13.70;;;4.50;;
7051;SDS011;3567;52.444;13.556;2023-12-20T04:35:47;21.35;;;5.22;;
7051;SDS011;3567;52.444;13.556;2023-12-20T04:38:13;13.30;;;4.40;;
7051;SDS011;3567;52.444;13.556;2023-12-20T04:40:38;12.40;;;4.70;;
7051;SDS011;3567;52.444;13.556;2023-12-20T04:43:05;25.58;;;5.05;;
7051;SDS011;3567;52.444;13.556;2023-12-20T04:45:31;14.27;;;4.53;;
7051;SDS011;3567;52.444;13.556;2023-12-20T04:47:56;13.80;;;4.28;;
7051;SDS011;3567;52.444;13.556;2023-12-20T04:50:22;22.27;;;3.85;;
7051;SDS011;3567;52.444;13.556;2023-12-20T04:52:47;15.10;;;3.50;;
7051;SDS011;3567;52.444;13.556;2023-12-20T04:55:13;15.95;;;3.88;;
7051;SDS011;3567;52.444;13.556;2023-12-20T04:57:38;19.70;;;4.50;;
7051;SDS011;3567;52.444;13.556;2023-12-20T05:00:04;11.35;;;3.88;;
7051;SDS011;3567;52.444;13.556;2023-12-20T05:02:31;15.98;;;4.15;;
7051;SDS011;3567;52.444;13.556;2023-12-20T05:04:56;15.07;;;4.25;;
7051;SDS011;3567;52.444;13.556;2023-12-20T05:07:22;22.98;;;8.07;;
7051;SDS011;3567;52.444;13.556;2023-12-20T05:09:47;17.05;;;4.68;;
7051;SDS011;3567;52.444;13.556;2023-12-20T05:12:12;13.50;;;4.60;;
7051;SDS011;3567;52.444;13.556;2023-12-20T05:14:38;13.90;;;5.13;;
7051;SDS011;3567;52.444;13.556;2023-12-20T05:17:03;15.75;;;4.45;;
7051;SDS011;3567;52.444;13.556;2023-12-20T05:19:29;19.02;;;5.03;;
7051;SDS011;3567;52.444;13.556;2023-12-20T05:21:54;11.70;;;4.82;;
7051;SDS011;3567;52.444;13.556;2023-12-20T05:24:20;14.70;;;4.72;;
7051;SDS011;3567;52.444;13.556;2023-12-20T05:26:48;15.75;;;4.32;;
7051;SDS011;3567;52.444;13.556;2023-12-20T05:29:13;21.13;;;5.63;;
7051;SDS011;3567;52.444;13.556;2023-12-20T05:31:39;24.45;;;4.45;;
7051;SDS011;3567;52.444;13.556;2023-12-20T05:34:04;15.40;;;3.63;;
7051;SDS011;3567;52.444;13.556;2023-12-20T05:36:30;18.05;;;3.80;;
7051;SDS011;3567;52.444;13.556;2023-12-20T05:38:55;12.45;;;3.67;;
7051;SDS011;3567;52.444;13.556;2023-12-20T05:41:20;18.25;;;3.03;;
7051;SDS011;3567;52.444;13.556;2023-12-20T05:43:46;20.33;;;3.30;;
7051;SDS011;3567;52.444;13.556;2023-12-20T05:46:12;16.30;;;3.20;;
7051;SDS011;3567;52.444;13.556;2023-12-20T05:48:40;16.30;;;2.90;;
7051;SDS011;3567;52.444;13.556;2023-12-20T05:51:05;15.82;;;3.45;;
7051;SDS011;3567;52.444;13.556;2023-12-20T05:53:31;18.52;;;3.95;;
7051;SDS011;3567;52.444;13.556;2023-12-20T05:55:56;9.73;;;3.28;;
7051;SDS011;3567;52.444;13.556;2023-12-20T05:58:21;14.82;;;3.13;;
7051;SDS011;3567;52.444;13.556;2023-12-20T06:00:47;17.35;;;3.22;;
7051;SDS011;3567;52.444;13.556;2023-12-20T06:03:13;15.73;;;3.72;;
7051;SDS011;3567;52.444;13.556;2023-12-20T06:05:39;21.10;;;2.72;;
7051;SDS011;3567;52.444;13.556;2023-12-20T06:08:04;28.55;;;3.28;;
7051;SDS011;3567;52.444;13.556;2023-12-20T06:10:30;15.48;;;2.47;;
7051;SDS011;3567;52.444;13.556;2023-12-20T06:12:55;7.93;;;2.58;;
7051;SDS011;3567;52.444;13.556;2023-12-20T06:15:22;15.60;;;2.63;;
7051;SDS011;3567;52.444;13.556;2023-12-20T06:17:48;14.13;;;2.42;;
7051;SDS011;3567;52.444;13.556;2023-12-20T06:20:16;14.85;;;4.78;;
7051;SDS011;3567;52.444;13.556;2023-12-20T06:22:41;17.73;;;3.28;;
7051;SDS011;3567;52.444;13.556;2023-12-20T06:25:12;14.82;;;3.28;;
7051;SDS011;3567;52.444;13.556;2023-12-20T06:27:38;14.80;;;2.65;;
7051;SDS011;3567;52.444;13.556;2023-12-20T06:30:03;18.40;;;3.25;;
7051;SDS011;3567;52.444;13.556;2023-12-20T06:32:29;12.77;;;2.65;;
7051;SDS011;3567;52.444;13.556;2023-12-20T06:34:55;19.13;;;3.03;;
7051;SDS011;3567;52.444;13.556;2023-12-20T06:37:20;10.57;;;2.67;;
7051;SDS011;3567;52.444;13.556;2023-12-20T06:39:46;10.40;;;3.08;;
7051;SDS011;3567;52.444;13.556;2023-12-20T06:42:14;18.25;;;3.67;;
7051;SDS011;3567;52.444;13.556;2023-12-20T06:44:39;10.23;;;2.30;;
7051;SDS011;3567;52.444;13.556;2023-12-20T06:47:06;11.68;;;2.70;;
7051;SDS011;3567;52.444;13.556;2023-12-20T06:49:34;13.55;;;2.75;;
7051;SDS011;3567;52.444;13.556;2023-12-20T06:52:00;12.77;;;3.15;;
7051;SDS011;3567;52.444;13.556;2023-12-20T06:54:28;16.00;;;2.95;;
7051;SDS011;3567;52.444;13.556;2023-12-20T06:56:53;13.77;;;2.40;;
7051;SDS011;3567;52.444;13.556;2023-12-20T06:59:19;17.08;;;3.35;;
7051;SDS011;3567;52.444;13.556;2023-12-20T07:01:47;14.00;;;3.20;;
7051;SDS011;3567;52.444;13.556;2023-12-20T07:04:13;10.13;;;3.30;;
7051;SDS011;3567;52.444;13.556;2023-12-20T07:06:38;9.13;;;2.83;;
7051;SDS011;3567;52.444;13.556;2023-12-20T07:09:04;14.82;;;3.92;;
7051;SDS011;3567;52.444;13.556;2023-12-20T07:11:29;10.63;;;3.17;;
7051;SDS011;3567;52.444;13.556;2023-12-20T07:13:54;6.43;;;2.78;;
7051;SDS011;3567;52.444;13.556;2023-12-20T07:16:20;11.63;;;3.63;;
7051;SDS011;3567;52.444;13.556;2023-12-20T07:18:47;15.10;;;3.00;;
7051;SDS011;3567;52.444;13.556;2023-12-20T07:21:13;14.77;;;3.72;;
7051;SDS011;3567;52.444;13.556;2023-12-20T07:23:38;9.55;;;2.75;;
7051;SDS011;3567;52.444;13.556;2023-12-20T07:26:03;14.73;;;3.90;;
7051;SDS011;3567;52.444;13.556;2023-12-20T07:28:29;11.02;;;3.65;;
7051;SDS011;3567;52.444;13.556;2023-12-20T07:30:54;13.25;;;3.85;;
7051;SDS011;3567;52.444;13.556;2023-12-20T07:33:20;12.98;;;3.30;;
7051;SDS011;3567;52.444;13.556;2023-12-20T07:35:45;10.85;;;3.45;;
7051;SDS011;3567;52.444;13.556;2023-12-20T07:38:10;13.48;;;3.65;;
7051;SDS011;3567;52.444;13.556;2023-12-20T07:40:37;12.73;;;2.95;;
7051;SDS011;3567;52.444;13.556;2023-12-20T07:43:03;11.25;;;2.58;;
7051;SDS011;3567;52.444;13.556;2023-12-20T07:45:28;8.90;;;2.92;;
7051;SDS011;3567;52.444;13.556;2023-12-20T07:47:53;14.25;;;2.90;;
7051;SDS011;3567;52.444;13.556;2023-12-20T07:50:19;20.67;;;2.67;;
7051;SDS011;3567;52.444;13.556;2023-12-20T07:52:45;10.02;;;2.28;;
7051;SDS011;3567;52.444;13.556;2023-12-20T07:55:13;17.27;;;2.53;;
7051;SDS011;3567;52.444;13.556;2023-12-20T07:57:41;11.77;;;2.38;;
7051;SDS011;3567;52.444;13.556;2023-12-20T08:00:07;12.60;;;2.15;;
7051;SDS011;3567;52.444;13.556;2023-12-20T08:02:32;23.60;;;6.95;;
7051;SDS011;3567;52.444;13.556;2023-12-20T08:04:58;11.25;;;2.17;;
7051;SDS011;3567;52.444;13.556;2023-12-20T08:07:23;10.43;;;3.00;;
7051;SDS011;3567;52.444;13.556;2023-12-20T08:09:49;11.77;;;2.40;;
7051;SDS011;3567;52.444;13.556;2023-12-20T08:12:20;10.88;;;2.10;;
7051;SDS011;3567;52.444;13.556;2023-12-20T08:14:45;11.50;;;1.98;;
7051;SDS011;3567;52.444;13.556;2023-12-20T08:17:11;13.32;;;2.30;;
7051;SDS011;3567;52.444;13.556;2023-12-20T08:19:37;9.07;;;2.28;;
7051;SDS011;3567;52.444;13.556;2023-12-20T08:22:02;13.95;;;2.22;;
7051;SDS011;3567;52.444;13.556;2023-12-20T08:24:29;18.38;;;3.05;;
7051;SDS011;3567;52.444;13.556;2023-12-20T08:26:55;10.25;;;2.10;;
7051;SDS011;3567;52.444;13.556;2023-12-20T08:29:20;12.90;;;2.28;;
7051;SDS011;3567;52.444;13.556;2023-12-20T08:31:46;10.15;;;2.17;;
7051;SDS011;3567;52.444;13.556;2023-12-20T08:34:11;8.77;;;1.83;;
7051;SDS011;3567;52.444;13.556;2023-12-20T08:36:39;9.15;;;2.22;;
7051;SDS011;3567;52.444;13.556;2023-12-20T08:39:04;16.60;;;2.63;;
7051;SDS011;3567;52.444;13.556;2023-12-20T08:41:32;17.67;;;4.72;;
7051;SDS011;3567;52.444;13.556;2023-12-20T08:43:57;8.93;;;1.92;;
7051;SDS011;3567;52.444;13.556;2023-12-20T08:46:23;14.95;;;3.17;;
7051;SDS011;3567;52.444;13.556;2023-12-20T08:48:50;10.20;;;2.08;;
7051;SDS011;3567;52.444;13.556;2023-12-20T08:51:15;10.40;;;2.03;;
7051;SDS011;3567;52.444;13.556;2023-12-20T08:53:40;15.70;;;2.55;;
7051;SDS011;3567;52.444;13.556;2023-12-20T08:56:06;15.88;;;2.03;;
7051;SDS011;3567;52.444;13.556;2023-12-20T08:58:32;12.15;;;1.73;;
7051;SDS011;3567;52.444;13.556;2023-12-20T09:00:58;8.40;;;2.17;;
7051;SDS011;3567;52.444;13.556;2023-12-20T09:03:23;10.60;;;2.05;;
7051;SDS011;3567;52.444;13.556;2023-12-20T09:05:49;12.07;;;2.55;;
7051;SDS011;3567;52.444;13.556;2023-12-20T09:08:14;7.47;;;1.77;;
7051;SDS011;3567;52.444;13.556;2023-12-20T09:10:40;22.40;;;2.13;;
7051;SDS011;3567;52.444;13.556;2023-12-20T09:13:05;9.10;;;1.83;;
7051;SDS011;3567;52.444;13.556;2023-12-20T09:15:30;12.48;;;1.63;;
7051;SDS011;3567;52.444;13.556;2023-12-20T09:17:56;11.85;;;2.08;;
7051;SDS011;3567;52.444;13.556;2023-12-20T09:20:21;14.98;;;2.08;;
7051;SDS011;3567;52.444;13.556;2023-12-20T09:22:48;10.80;;;1.88;;
7051;SDS011;3567;52.444;13.556;2023-12-20T09:25:14;9.18;;;2.17;;
7051;SDS011;3567;52.444;13.556;2023-12-20T09:27:40;9.73;;;2.97;;
7051;SDS011;3567;52.444;13.556;2023-12-20T09:30:06;13.40;;;2.03;;
7051;SDS011;3567;52.444;13.556;2023-12-20T09:32:32;11.52;;;1.63;;
7051;SDS011;3567;52.444;13.556;2023-12-20T09:35:05;13.90;;;1.65;;
7051;SDS011;3567;52.444;13.556;2023-12-20T09:37:31;10.93;;;2.42;;
7051;SDS011;3567;52.444;13.556;2023-12-20T09:39:56;11.90;;;2.60;;
7051;SDS011;3567;52.444;13.556;2023-12-20T09:42:31;14.20;;;2.17;;
7051;SDS011;3567;52.444;13.556;2023-12-20T09:45:25;13.30;;;2.17;;
7051;SDS011;3567;52.444;13.556;2023-12-20T09:47:51;15.48;;;2.00;;
7051;SDS011;3567;52.444;13.556;2023-12-20T09:50:19;6.28;;;1.67;;
7051;SDS011;3567;52.444;13.556;2023-12-20T09:52:46;10.50;;;2.10;;
7051;SDS011;3567;52.444;13.556;2023-12-20T09:55:16;8.05;;;2.30;;
7051;SDS011;3567;52.444;13.556;2023-12-20T09:57:42;7.05;;;1.83;;
7051;SDS011;3567;52.444;13.556;2023-12-20T10:00:08;12.65;;;2.15;;
7051;SDS011;3567;52.444;13.556;2023-12-20T10:02:34;10.32;;;1.52;;
7051;SDS011;3567;52.444;13.556;2023-12-20T10:05:03;6.88;;;1.30;;
7051;SDS011;3567;52.444;13.556;2023-12-20T10:07:34;9.38;;;1.52;;
7051;SDS011;3567;52.444;13.556;2023-12-20T10:10:00;8.45;;;2.15;;
7051;SDS011;3567;52.444;13.556;2023-12-20T10:12:27;9.82;;;1.77;;
7051;SDS011;3567;52.444;13.556;2023-12-20T10:14:52;13.13;;;1.88;;
7051;SDS011;3567;52.444;13.556;2023-12-20T10:17:18;7.10;;;2.15;;
7051;SDS011;3567;52.444;13.556;2023-12-20T10:19:43;10.35;;;1.90;;
7051;SDS011;3567;52.444;13.556;2023-12-20T10:22:08;10.77;;;1.55;;
7051;SDS011;3567;52.444;13.556;2023-12-20T10:24:35;6.25;;;1.33;;
7051;SDS011;3567;52.444;13.556;2023-12-20T10:27:04;6.57;;;1.00;;
7051;SDS011;3567;52.444;13.556;2023-12-20T10:29:31;12.45;;;2.97;;
7051;SDS011;3567;52.444;13.556;2023-12-20T10:31:58;7.20;;;1.60;;
7051;SDS011;3567;52.444;13.556;2023-12-20T10:34:23;6.93;;;1.40;;
7051;SDS011;3567;52.444;13.556;2023-12-20T10:36:49;6.13;;;1.30;;
7051;SDS011;3567;52.444;13.556;2023-12-20T10:39:14;9.55;;;1.67;;
7051;SDS011;3567;52.444;13.556;2023-12-20T10:41:40;9.45;;;1.70;;
7051;SDS011;3567;52.444;13.556;2023-12-20T10:44:07;10.73;;;1.55;;
7051;SDS011;3567;52.444;13.556;2023-12-20T10:46:35;10.07;;;1.67;;
7051;SDS011;3567;52.444;13.556;2023-12-20T10:49:04;7.50;;;1.33;;
7051;SDS011;3567;52.444;13.556;2023-12-20T10:51:32;7.32;;;1.95;;
7051;SDS011;3567;52.444;13.556;2023-12-20T10:54:00;11.50;;;1.77;;
7051;SDS011;3567;52.444;13.556;2023-12-20T10:56:25;9.13;;;1.20;;
7051;SDS011;3567;52.444;13.556;2023-12-20T10:58:57;6.65;;;1.98;;
7051;SDS011;3567;52.444;13.556;2023-12-20T11:01:27;12.02;;;2.20;;
7051;SDS011;3567;52.444;13.556;2023-12-20T11:03:55;10.43;;;1.33;;
7051;SDS011;3567;52.444;13.556;2023-12-20T11:09:04;11.30;;;2.00;;
7051;SDS011;3567;52.444;13.556;2023-12-20T11:11:43;7.65;;;1.20;;
7051;SDS011;3567;52.444;13.556;2023-12-20T11:14:15;18.25;;;2.38;;
7051;SDS011;3567;52.444;13.556;2023-12-20T11:16:47;7.40;;;1.92;;
7051;SDS011;3567;52.444;13.556;2023-12-20T11:19:13;11.00;;;1.70;;
7051;SDS011;3567;52.444;13.556;2023-12-20T11:21:41;13.68;;;1.52;;
7051;SDS011;3567;52.444;13.556;2023-12-20T11:24:06;14.00;;;1.98;;
7051;SDS011;3567;52.444;13.556;2023-12-20T11:26:32;7.43;;;1.23;;
7051;SDS011;3567;52.444;13.556;2023-12-20T11:32:01;15.00;;;1.88;;
7051;SDS011;3567;52.444;13.556;2023-12-20T11:34:46;9.55;;;2.38;;
7051;SDS011;3567;52.444;13.556;2023-12-20T11:37:12;7.30;;;1.58;;
7051;SDS011;3567;52.444;13.556;2023-12-20T11:39:38;15.57;;;2.65;;
7051;SDS011;3567;52.444;13.556;2023-12-20T11:42:06;6.00;;;1.48;;
7051;SDS011;3567;52.444;13.556;2023-12-20T11:44:32;10.70;;;2.47;;
7051;SDS011;3567;52.444;13.556;2023-12-20T11:46:58;15.80;;;2.33;;
7051;SDS011;3567;52.444;13.556;2023-12-20T11:49:24;10.10;;;2.03;;
7051;SDS011;3567;52.444;13.556;2023-12-20T11:51:50;8.02;;;1.92;;
7051;SDS011;3567;52.444;13.556;2023-12-20T11:54:16;11.30;;;2.20;;
7051;SDS011;3567;52.444;13.556;2023-12-20T11:56:41;11.15;;;2.42;;
7051;SDS011;3567;52.444;13.556;2023-12-20T11:59:09;8.15;;;1.92;;
7051;SDS011;3567;52.444;13.556;2023-12-20T12:01:36;7.55;;;1.80;;
7051;SDS011;3567;52.444;13.556;2023-12-20T12:04:05;10.18;;;1.95;;
7051;SDS011;3567;52.444;13.556;2023-12-20T12:06:31;13.30;;;2.25;;
7051;SDS011;3567;52.444;13.556;2023-12-20T12:08:57;9.68;;;2.28;;
7051;SDS011;3567;52.444;13.556;2023-12-20T12:11:22;12.00;;;2.33;;
7051;SDS011;3567;52.444;13.556;2023-12-20T12:13:48;13.95;;;1.90;;
7051;SDS011;3567;52.444;13.556;2023-12-20T12:16:17;7.18;;;2.17;;
7051;SDS011;3567;52.444;13.556;2023-12-20T12:18:46;9.10;;;2.33;;
7051;SDS011;3567;52.444;13.556;2023-12-20T12:21:18;14.38;;;2.55;;
7051;SDS011;3567;52.444;13.556;2023-12-20T12:23:45;9.07;;;1.95;;
7051;SDS011;3567;52.444;13.556;2023-12-20T12:26:11;10.40;;;2.92;;
7051;SDS011;3567;52.444;13.556;2023-12-20T12:28:36;11.00;;;2.20;;
7051;SDS011;3567;52.444;13.556;2023-12-20T12:31:04;5.82;;;1.60;;
7051;SDS011;3567;52.444;13.556;2023-12-20T12:33:30;6.30;;;2.15;;
7051;SDS011;3567;52.444;13.556;2023-12-20T12:35:55;4.78;;;1.85;;
7051;SDS011;3567;52.444;13.556;2023-12-20T12:38:21;7.30;;;2.10;;
7051;SDS011;3567;52.444;13.556;2023-12-20T12:40:47;7.43;;;1.92;;
7051;SDS011;3567;52.444;13.556;2023-12-20T12:43:12;3.13;;;1.75;;
7051;SDS011;3567;52.444;13.556;2023-12-20T12:45:38;10.13;;;2.08;;
7051;SDS011;3567;52.444;13.556;2023-12-20T12:48:03;10.98;;;3.05;;
7051;SDS011;3567;52.444;13.556;2023-12-20T12:50:30;14.25;;;2.88;;
7051;SDS011;3567;52.444;13.556;2023-12-20T12:52:56;10.77;;;2.60;;
7051;SDS011;3567;52.444;13.556;2023-12-20T12:55:21;14.77;;;3.72;;
7051;SDS011;3567;52.444;13.556;2023-12-20T12:57:47;6.10;;;2.53;;
7051;SDS011;3567;52.444;13.556;2023-12-20T13:00:12;9.10;;;3.00;;
7051;SDS011;3567;52.444;13.556;2023-12-20T13:02:38;8.40;;;3.28;;
7051;SDS011;3567;52.444;13.556;2023-12-20T13:05:07;11.43;;;2.83;;
7051;SDS011;3567;52.444;13.556;2023-12-20T13:07:33;13.10;;;3.22;;
7051;SDS011;3567;52.444;13.556;2023-12-20T13:09:58;11.20;;;3.00;;
7051;SDS011;3567;52.444;13.556;2023-12-20T13:12:24;6.75;;;2.17;;
7051;SDS011;3567;52.444;13.556;2023-12-20T13:14:49;7.82;;;2.72;;
7051;SDS011;3567;52.444;13.556;2023-12-20T13:17:14;10.70;;;2.63;;
7051;SDS011;3567;52.444;13.556;2023-12-20T13:19:41;8.35;;;2.55;;
7051;SDS011;3567;52.444;13.556;2023-12-20T13:22:06;13.15;;;2.70;;
7051;SDS011;3567;52.444;13.556;2023-12-20T13:24:32;12.85;;;2.40;;
7051;SDS011;3567;52.444;13.556;2023-12-20T13:26:57;13.10;;;2.35;;
7051;SDS011;3567;52.444;13.556;2023-12-20T13:29:23;7.65;;;2.30;;
7051;SDS011;3567;52.444;13.556;2023-12-20T13:31:52;10.85;;;2.88;;
7051;SDS011;3567;52.444;13.556;2023-12-20T13:34:17;8.25;;;2.78;;
7051;SDS011;3567;52.444;13.556;2023-12-20T13:36:43;13.40;;;3.20;;
7051;SDS011;3567;52.444;13.556;2023-12-20T13:39:11;22.13;;;10.15;;
7051;SDS011;3567;52.444;13.556;2023-12-20T13:41:37;13.90;;;2.80;;
7051;SDS011;3567;52.444;13.556;2023-12-20T13:44:02;7.63;;;2.33;;
7051;SDS011;3567;52.444;13.556;2023-12-20T13:46:28;9.80;;;2.58;;
7051;SDS011;3567;52.444;13.556;2023-12-20T13:48:54;7.72;;;1.75;;
7051;SDS011;3567;52.444;13.556;2023-12-20T13:51:19;6.00;;;1.83;;
7051;SDS011;3567;52.444;13.556;2023-12-20T13:53:46;1.92;;;1.10;;
7051;SDS011;3567;52.444;13.556;2023-12-20T13:56:13;5.07;;;1.35;;
7051;SDS011;3567;52.444;13.556;2023-12-20T13:58:41;4.20;;;1.42;;
7051;SDS011;3567;52.444;13.556;2023-12-20T14:01:07;2.10;;;1.23;;
7051;SDS011;3567;52.444;13.556;2023-12-20T14:03:34;2.58;;;1.13;;
7051;SDS011;3567;52.444;13.556;2023-12-20T14:05:59;5.28;;;1.45;;
7051;SDS011;3567;52.444;13.556;2023-12-20T14:08:28;2.28;;;1.10;;
7051;SDS011;3567;52.444;13.556;2023-12-20T14:10:54;2.65;;;1.15;;
7051;SDS011;3567;52.444;13.556;2023-12-20T14:13:19;6.78;;;1.05;;
7051;SDS011;3567;52.444;13.556;2023-12-20T14:15:46;6.40;;;1.08;;
7051;SDS011;3567;52.444;13.556;2023-12-20T14:18:11;6.70;;;0.90;;
7051;SDS011;3567;52.444;13.556;2023-12-20T14:20:47;3.40;;;0.80;;
7051;SDS011;3567;52.444;13.556;2023-12-20T14:23:13;2.83;;;0.75;;
7051;SDS011;3567;52.444;13.556;2023-12-20T14:25:41;2.47;;;0.50;;
7051;SDS011;3567;52.444;13.556;2023-12-20T14:28:07;2.08;;;0.55;;
7051;SDS011;3567;52.444;13.556;2023-12-20T14:30:35;3.05;;;1.35;;
7051;SDS011;3567;52.444;13.556;2023-12-20T14:33:01;0.93;;;0.60;;
7051;SDS011;3567;52.444;13.556;2023-12-20T14:35:27;1.17;;;0.60;;
7051;SDS011;3567;52.444;13.556;2023-12-20T14:37:56;3.72;;;0.70;;
7051;SDS011;3567;52.444;13.556;2023-12-20T14:40:22;2.10;;;0.57;;
7051;SDS011;3567;52.444;13.556;2023-12-20T14:42:47;2.33;;;0.50;;
7051;SDS011;3567;52.444;13.556;2023-12-20T14:45:18;3.42;;;0.55;;
7051;SDS011;3567;52.444;13.556;2023-12-20T14:47:44;1.65;;;0.47;;